sensor_id;sensor_type;location;lat;lon;timestamp;temperature;humidity
4673;DHT22;61885;53.560;9.940;2022-08-04T00:01:32;21.90;99.90
4673;DHT22;61885;53.560;9.940;2022-08-04T00:04:07;21.90;99.90
4673;DHT22;61885;53.560;9.940;2022-08-04T00:06:47;21.90;99.90
4673;DHT22;61885;53.560;9.940;2022-08-04T00:09:27;21.90;99.90
4673;DHT22;61885;53.560;9.940;2022-08-04T00:12:01;21.90;99.90
4673;DHT22;61885;53.560;9.940;2022-08-04T00:14:33;21.80;99.90
4673;DHT22;61885;53.560;9.940;2022-08-04T00:17:04;21.90;99.90
4673;DHT22;61885;53.560;9.940;2022-08-04T00:19:38;21.80;99.90
4673;DHT22;61885;53.560;9.940;2022-08-04T00:22:10;21.90;99.90
4673;DHT22;61885;53.560;9.940;2022-08-04T00:24:39;21.90;99.90
4673;DHT22;61885;53.560;9.940;2022-08-04T00:27:12;21.90;99.90
4673;DHT22;61885;53.560;9.940;2022-08-04T00:29:41;21.90;99.90
4673;DHT22;61885;53.560;9.940;2022-08-04T00:32:11;21.90;99.90
4673;DHT22;61885;53.560;9.940;2022-08-04T00:34:40;21.90;99.90
4673;DHT22;61885;53.560;9.940;2022-08-04T00:37:09;21.90;99.90
4673;DHT22;61885;53.560;9.940;2022-08-04T00:39:39;21.90;99.90
4673;DHT22;61885;53.560;9.940;2022-08-04T00:42:29;21.90;99.90
4673;DHT22;61885;53.560;9.940;2022-08-04T00:48:23;21.80;99.90
4673;DHT22;61885;53.560;9.940;2022-08-04T00:51:00;21.80;99.90
4673;DHT22;61885;53.560;9.940;2022-08-04T00:53:39;21.90;99.90
4673;DHT22;61885;53.560;9.940;2022-08-04T00:56:21;21.90;99.90
4673;DHT22;61885;53.560;9.940;2022-08-04T00:59:03;21.90;99.90
4673;DHT22;61885;53.560;9.940;2022-08-04T01:01:43;21.90;99.90
4673;DHT22;61885;53.560;9.940;2022-08-04T01:04:25;22.00;99.90
4673;DHT22;61885;53.560;9.940;2022-08-04T01:07:09;22.00;99.90
4673;DHT22;61885;53.560;9.940;2022-08-04T01:09:50;21.90;99.90
4673;DHT22;61885;53.560;9.940;2022-08-04T01:12:46;21.90;99.90
4673;DHT22;61885;53.560;9.940;2022-08-04T01:15:27;21.90;99.90
4673;DHT22;61885;53.560;9.940;2022-08-04T01:18:04;21.90;99.90
4673;DHT22;61885;53.560;9.940;2022-08-04T01:20:38;21.90;99.90
4673;DHT22;61885;53.560;9.940;2022-08-04T01:26:46;21.90;99.90
4673;DHT22;61885;53.560;9.940;2022-08-04T01:29:20;21.90;99.90
4673;DHT22;61885;53.560;9.940;2022-08-04T01:32:10;21.90;99.90
4673;DHT22;61885;53.560;9.940;2022-08-04T01:34:52;21.90;99.90
4673;DHT22;61885;53.560;9.940;2022-08-04T01:37:30;21.90;99.90
4673;DHT22;61885;53.560;9.940;2022-08-04T01:40:03;21.80;99.90
4673;DHT22;61885;53.560;9.940;2022-08-04T01:42:33;21.80;99.90
4673;DHT22;61885;53.560;9.940;2022-08-04T01:45:07;21.80;99.90
4673;DHT22;61885;53.560;9.940;2022-08-04T01:47:39;21.80;99.90
4673;DHT22;61885;53.560;9.940;2022-08-04T01:50:10;21.80;99.90
4673;DHT22;61885;53.560;9.940;2022-08-04T01:52:41;21.80;99.90
4673;DHT22;61885;53.560;9.940;2022-08-04T01:55:12;21.80;99.90
4673;DHT22;61885;53.560;9.940;2022-08-04T01:57:42;21.80;99.90
4673;DHT22;61885;53.560;9.940;2022-08-04T02:00:15;21.80;99.90
4673;DHT22;61885;53.560;9.940;2022-08-04T02:02:44;21.80;99.90
4673;DHT22;61885;53.560;9.940;2022-08-04T02:05:15;21.80;99.90
4673;DHT22;61885;53.560;9.940;2022-08-04T02:08:01;21.80;99.90
4673;DHT22;61885;53.560;9.940;2022-08-04T02:10:43;21.80;99.90
4673;DHT22;61885;53.560;9.940;2022-08-04T02:13:22;21.70;99.90
4673;DHT22;61885;53.560;9.940;2022-08-04T02:15:57;21.80;99.90
4673;DHT22;61885;53.560;9.940;2022-08-04T02:18:31;21.60;99.90
4673;DHT22;61885;53.560;9.940;2022-08-04T02:21:03;21.60;99.90
4673;DHT22;61885;53.560;9.940;2022-08-04T02:23:36;21.60;99.90
4673;DHT22;61885;53.560;9.940;2022-08-04T02:26:11;21.80;99.90
4673;DHT22;61885;53.560;9.940;2022-08-04T02:28:47;21.60;99.90
4673;DHT22;61885;53.560;9.940;2022-08-04T02:31:26;21.60;99.90
4673;DHT22;61885;53.560;9.940;2022-08-04T02:34:05;21.60;99.90
4673;DHT22;61885;53.560;9.940;2022-08-04T02:36:37;21.60;99.90
4673;DHT22;61885;53.560;9.940;2022-08-04T02:39:07;21.60;99.90
4673;DHT22;61885;53.560;9.940;2022-08-04T02:41:37;21.50;99.90
4673;DHT22;61885;53.560;9.940;2022-08-04T02:44:08;21.60;99.90
4673;DHT22;61885;53.560;9.940;2022-08-04T02:46:40;21.50;99.90
4673;DHT22;61885;53.560;9.940;2022-08-04T02:49:09;21.50;99.90
4673;DHT22;61885;53.560;9.940;2022-08-04T02:51:41;21.50;99.90
4673;DHT22;61885;53.560;9.940;2022-08-04T02:54:10;21.50;99.90
4673;DHT22;61885;53.560;9.940;2022-08-04T02:56:40;21.50;99.90
4673;DHT22;61885;53.560;9.940;2022-08-04T02:59:12;21.50;99.90
4673;DHT22;61885;53.560;9.940;2022-08-04T03:01:43;21.50;99.90
4673;DHT22;61885;53.560;9.940;2022-08-04T03:04:21;21.50;99.90
4673;DHT22;61885;53.560;9.940;2022-08-04T03:07:22;21.60;99.90
4673;DHT22;61885;53.560;9.940;2022-08-04T03:10:23;21.60;99.90
4673;DHT22;61885;53.560;9.940;2022-08-04T03:16:02;21.50;99.90
4673;DHT22;61885;53.560;9.940;2022-08-04T03:18:54;21.40;99.90
4673;DHT22;61885;53.560;9.940;2022-08-04T03:25:07;21.40;99.90
4673;DHT22;61885;53.560;9.940;2022-08-04T03:28:05;21.40;99.90
4673;DHT22;61885;53.560;9.940;2022-08-04T03:30:53;21.40;99.90
4673;DHT22;61885;53.560;9.940;2022-08-04T03:33:47;21.50;99.90
4673;DHT22;61885;53.560;9.940;2022-08-04T03:42:50;21.50;99.90
4673;DHT22;61885;53.560;9.940;2022-08-04T03:45:46;21.40;99.90
4673;DHT22;61885;53.560;9.940;2022-08-04T03:48:38;21.40;99.90
4673;DHT22;61885;53.560;9.940;2022-08-04T03:51:29;21.40;99.90
4673;DHT22;61885;53.560;9.940;2022-08-04T03:54:41;21.30;99.90
4673;DHT22;61885;53.560;9.940;2022-08-04T03:57:39;21.40;99.90
4673;DHT22;61885;53.560;9.940;2022-08-04T04:00:13;21.30;99.90
4673;DHT22;61885;53.560;9.940;2022-08-04T04:03:07;21.30;99.90
4673;DHT22;61885;53.560;9.940;2022-08-04T04:06:18;21.30;99.90
4673;DHT22;61885;53.560;9.940;2022-08-04T04:09:15;21.20;99.90
4673;DHT22;61885;53.560;9.940;2022-08-04T04:11:55;21.20;99.90
4673;DHT22;61885;53.560;9.940;2022-08-04T04:14:47;21.40;99.90
4673;DHT22;61885;53.560;9.940;2022-08-04T04:17:35;21.30;99.90
4673;DHT22;61885;53.560;9.940;2022-08-04T04:20:31;21.30;99.90
4673;DHT22;61885;53.560;9.940;2022-08-04T04:23:14;21.40;99.90
4673;DHT22;61885;53.560;9.940;2022-08-04T04:25:59;21.60;99.90
4673;DHT22;61885;53.560;9.940;2022-08-04T04:28:52;21.80;99.90
4673;DHT22;61885;53.560;9.940;2022-08-04T04:31:42;21.90;99.90
4673;DHT22;61885;53.560;9.940;2022-08-04T04:34:29;22.10;99.90
4673;DHT22;61885;53.560;9.940;2022-08-04T04:37:18;22.20;99.90
4673;DHT22;61885;53.560;9.940;2022-08-04T04:40:00;22.20;99.90
4673;DHT22;61885;53.560;9.940;2022-08-04T04:42:41;22.10;99.90
4673;DHT22;61885;53.560;9.940;2022-08-04T04:45:16;22.20;99.90
4673;DHT22;61885;53.560;9.940;2022-08-04T04:48:03;22.20;99.90
4673;DHT22;61885;53.560;9.940;2022-08-04T04:50:42;22.20;99.90
4673;DHT22;61885;53.560;9.940;2022-08-04T04:53:19;22.20;99.90
4673;DHT22;61885;53.560;9.940;2022-08-04T04:55:55;22.40;99.90
4673;DHT22;61885;53.560;9.940;2022-08-04T04:58:31;22.20;99.90
4673;DHT22;61885;53.560;9.940;2022-08-04T05:04:34;22.30;99.90
4673;DHT22;61885;53.560;9.940;2022-08-04T05:07:26;22.40;99.90
4673;DHT22;61885;53.560;9.940;2022-08-04T05:10:08;22.50;99.90
4673;DHT22;61885;53.560;9.940;2022-08-04T05:12:50;22.20;99.90
4673;DHT22;61885;53.560;9.940;2022-08-04T05:15:28;22.10;99.90
4673;DHT22;61885;53.560;9.940;2022-08-04T05:18:00;22.10;99.90
4673;DHT22;61885;53.560;9.940;2022-08-04T05:20:34;22.00;99.90
4673;DHT22;61885;53.560;9.940;2022-08-04T05:23:12;21.90;99.90
4673;DHT22;61885;53.560;9.940;2022-08-04T05:25:46;21.80;99.90
4673;DHT22;61885;53.560;9.940;2022-08-04T05:28:19;21.90;99.90
4673;DHT22;61885;53.560;9.940;2022-08-04T05:30:58;21.90;99.90
4673;DHT22;61885;53.560;9.940;2022-08-04T05:33:31;22.00;99.90
4673;DHT22;61885;53.560;9.940;2022-08-04T05:36:05;22.10;99.90
4673;DHT22;61885;53.560;9.940;2022-08-04T05:38:38;22.10;99.90
4673;DHT22;61885;53.560;9.940;2022-08-04T05:41:08;22.20;99.90
4673;DHT22;61885;53.560;9.940;2022-08-04T05:43:37;22.20;99.90
4673;DHT22;61885;53.560;9.940;2022-08-04T05:46:11;22.20;99.90
4673;DHT22;61885;53.560;9.940;2022-08-04T05:48:41;22.30;99.90
4673;DHT22;61885;53.560;9.940;2022-08-04T05:51:13;22.40;99.90
4673;DHT22;61885;53.560;9.940;2022-08-04T05:53:42;22.50;99.90
4673;DHT22;61885;53.560;9.940;2022-08-04T05:56:13;22.50;99.90
4673;DHT22;61885;53.560;9.940;2022-08-04T05:58:43;22.50;99.90
4673;DHT22;61885;53.560;9.940;2022-08-04T06:01:16;22.60;99.90
4673;DHT22;61885;53.560;9.940;2022-08-04T06:03:47;22.60;99.90
4673;DHT22;61885;53.560;9.940;2022-08-04T06:06:18;22.60;99.90
4673;DHT22;61885;53.560;9.940;2022-08-04T06:08:48;22.70;99.90
4673;DHT22;61885;53.560;9.940;2022-08-04T06:11:18;22.80;99.90
4673;DHT22;61885;53.560;9.940;2022-08-04T06:13:52;22.70;99.90
4673;DHT22;61885;53.560;9.940;2022-08-04T06:16:30;22.80;99.90
4673;DHT22;61885;53.560;9.940;2022-08-04T06:19:04;22.90;99.90
4673;DHT22;61885;53.560;9.940;2022-08-04T06:21:35;22.90;99.90
4673;DHT22;61885;53.560;9.940;2022-08-04T06:24:07;22.90;99.90
4673;DHT22;61885;53.560;9.940;2022-08-04T06:26:38;23.00;99.90
4673;DHT22;61885;53.560;9.940;2022-08-04T06:29:08;23.00;99.90
4673;DHT22;61885;53.560;9.940;2022-08-04T06:31:46;23.00;99.90
4673;DHT22;61885;53.560;9.940;2022-08-04T06:34:25;23.20;99.90
4673;DHT22;61885;53.560;9.940;2022-08-04T06:36:55;23.20;99.90
4673;DHT22;61885;53.560;9.940;2022-08-04T06:39:25;23.30;99.90
4673;DHT22;61885;53.560;9.940;2022-08-04T06:41:55;23.30;99.90
4673;DHT22;61885;53.560;9.940;2022-08-04T06:44:26;23.50;99.90
4673;DHT22;61885;53.560;9.940;2022-08-04T06:46:59;23.50;99.90
4673;DHT22;61885;53.560;9.940;2022-08-04T06:49:29;23.70;99.90
4673;DHT22;61885;53.560;9.940;2022-08-04T06:51:59;23.70;99.90
4673;DHT22;61885;53.560;9.940;2022-08-04T06:54:28;23.80;99.90
4673;DHT22;61885;53.560;9.940;2022-08-04T06:56:58;23.90;99.90
4673;DHT22;61885;53.560;9.940;2022-08-04T06:59:28;24.00;99.90
4673;DHT22;61885;53.560;9.940;2022-08-04T07:02:00;24.00;99.90
4673;DHT22;61885;53.560;9.940;2022-08-04T07:04:29;24.10;99.90
4673;DHT22;61885;53.560;9.940;2022-08-04T07:06:58;24.10;99.90
4673;DHT22;61885;53.560;9.940;2022-08-04T07:09:27;24.20;99.90
4673;DHT22;61885;53.560;9.940;2022-08-04T07:11:56;24.30;99.90
4673;DHT22;61885;53.560;9.940;2022-08-04T07:14:25;24.40;97.50
4673;DHT22;61885;53.560;9.940;2022-08-04T07:16:55;24.60;95.30
4673;DHT22;61885;53.560;9.940;2022-08-04T07:19:26;24.70;94.00
4673;DHT22;61885;53.560;9.940;2022-08-04T07:21:55;24.80;92.50
4673;DHT22;61885;53.560;9.940;2022-08-04T07:24:28;25.00;90.30
4673;DHT22;61885;53.560;9.940;2022-08-04T07:26:57;25.00;88.30
4673;DHT22;61885;53.560;9.940;2022-08-04T07:29:26;25.00;86.80
4673;DHT22;61885;53.560;9.940;2022-08-04T07:31:56;25.10;85.70
4673;DHT22;61885;53.560;9.940;2022-08-04T07:34:28;25.20;80.60
4673;DHT22;61885;53.560;9.940;2022-08-04T07:36:58;25.20;78.50
4673;DHT22;61885;53.560;9.940;2022-08-04T07:39:28;25.30;76.30
4673;DHT22;61885;53.560;9.940;2022-08-04T07:42:02;25.40;72.70
4673;DHT22;61885;53.560;9.940;2022-08-04T07:44:31;25.40;73.70
4673;DHT22;61885;53.560;9.940;2022-08-04T07:47:02;25.60;70.90
4673;DHT22;61885;53.560;9.940;2022-08-04T07:49:34;25.70;67.80
4673;DHT22;61885;53.560;9.940;2022-08-04T07:52:05;25.80;63.40
4673;DHT22;61885;53.560;9.940;2022-08-04T07:54:34;25.90;60.90
4673;DHT22;61885;53.560;9.940;2022-08-04T07:57:03;26.00;58.20
4673;DHT22;61885;53.560;9.940;2022-08-04T07:59:32;26.00;56.10
4673;DHT22;61885;53.560;9.940;2022-08-04T08:02:01;26.00;58.30
4673;DHT22;61885;53.560;9.940;2022-08-04T08:04:31;26.10;56.80
4673;DHT22;61885;53.560;9.940;2022-08-04T08:07:02;26.20;51.50
4673;DHT22;61885;53.560;9.940;2022-08-04T08:09:32;26.30;46.20
4673;DHT22;61885;53.560;9.940;2022-08-04T08:12:01;26.40;43.40
4673;DHT22;61885;53.560;9.940;2022-08-04T08:14:30;26.60;42.00
4673;DHT22;61885;53.560;9.940;2022-08-04T08:17:00;26.70;39.80
4673;DHT22;61885;53.560;9.940;2022-08-04T08:19:29;26.80;37.70
4673;DHT22;61885;53.560;9.940;2022-08-04T08:22:02;27.10;30.50
4673;DHT22;61885;53.560;9.940;2022-08-04T08:24:34;27.10;23.90
4673;DHT22;61885;53.560;9.940;2022-08-04T08:27:05;27.20;22.50
4673;DHT22;61885;53.560;9.940;2022-08-04T08:29:34;27.40;20.50
4673;DHT22;61885;53.560;9.940;2022-08-04T08:32:09;27.70;18.60
4673;DHT22;61885;53.560;9.940;2022-08-04T08:34:39;27.70;16.40
4673;DHT22;61885;53.560;9.940;2022-08-04T08:37:19;27.90;13.80
4673;DHT22;61885;53.560;9.940;2022-08-04T08:39:58;28.00;12.60
4673;DHT22;61885;53.560;9.940;2022-08-04T08:42:45;28.10;9.60
4673;DHT22;61885;53.560;9.940;2022-08-04T08:48:45;28.30;8.00
4673;DHT22;61885;53.560;9.940;2022-08-04T08:51:36;28.30;7.70
4673;DHT22;61885;53.560;9.940;2022-08-04T08:57:19;28.40;5.40
4673;DHT22;61885;53.560;9.940;2022-08-04T09:00:00;28.50;1.00
4673;DHT22;61885;53.560;9.940;2022-08-04T09:05:49;28.70;3.50
4673;DHT22;61885;53.560;9.940;2022-08-04T09:08:29;28.80;2.30
4673;DHT22;61885;53.560;9.940;2022-08-04T09:11:11;28.90;1.80
4673;DHT22;61885;53.560;9.940;2022-08-04T09:13:45;29.00;1.00
4673;DHT22;61885;53.560;9.940;2022-08-04T09:16:20;29.20;1.00
4673;DHT22;61885;53.560;9.940;2022-08-04T09:18:55;29.30;1.00
4673;DHT22;61885;53.560;9.940;2022-08-04T09:21:34;29.30;1.00
4673;DHT22;61885;53.560;9.940;2022-08-04T09:24:08;29.30;1.00
4673;DHT22;61885;53.560;9.940;2022-08-04T09:26:45;29.40;1.00
4673;DHT22;61885;53.560;9.940;2022-08-04T09:29:19;29.40;1.00
4673;DHT22;61885;53.560;9.940;2022-08-04T09:31:56;29.60;1.00
4673;DHT22;61885;53.560;9.940;2022-08-04T09:34:33;29.80;1.00
4673;DHT22;61885;53.560;9.940;2022-08-04T09:37:11;29.90;1.00
4673;DHT22;61885;53.560;9.940;2022-08-04T09:39:48;29.90;1.00
4673;DHT22;61885;53.560;9.940;2022-08-04T09:42:34;30.10;1.00
4673;DHT22;61885;53.560;9.940;2022-08-04T09:45:11;30.30;1.00
4673;DHT22;61885;53.560;9.940;2022-08-04T09:47:46;30.30;1.00
4673;DHT22;61885;53.560;9.940;2022-08-04T09:50:27;30.40;1.00
4673;DHT22;61885;53.560;9.940;2022-08-04T09:53:05;30.20;1.00
4673;DHT22;61885;53.560;9.940;2022-08-04T09:55:45;31.30;1.00
4673;DHT22;61885;53.560;9.940;2022-08-04T09:58:31;30.10;1.00
4673;DHT22;61885;53.560;9.940;2022-08-04T10:01:05;30.30;1.00
4673;DHT22;61885;53.560;9.940;2022-08-04T10:03:37;30.30;1.00
4673;DHT22;61885;53.560;9.940;2022-08-04T10:06:17;30.30;1.00
4673;DHT22;61885;53.560;9.940;2022-08-04T10:09:00;30.40;1.00
4673;DHT22;61885;53.560;9.940;2022-08-04T10:12:02;30.60;1.00
4673;DHT22;61885;53.560;9.940;2022-08-04T10:14:47;30.80;1.00
4673;DHT22;61885;53.560;9.940;2022-08-04T10:17:30;31.00;1.00
4673;DHT22;61885;53.560;9.940;2022-08-04T10:20:08;31.10;1.00
4673;DHT22;61885;53.560;9.940;2022-08-04T10:22:42;31.10;1.00
4673;DHT22;61885;53.560;9.940;2022-08-04T10:25:24;31.10;1.00
4673;DHT22;61885;53.560;9.940;2022-08-04T10:27:59;31.10;1.00
4673;DHT22;61885;53.560;9.940;2022-08-04T10:30:35;31.20;1.00
4673;DHT22;61885;53.560;9.940;2022-08-04T10:33:10;31.20;1.00
4673;DHT22;61885;53.560;9.940;2022-08-04T10:35:45;31.30;1.00
4673;DHT22;61885;53.560;9.940;2022-08-04T10:38:19;31.40;1.00
4673;DHT22;61885;53.560;9.940;2022-08-04T10:40:57;31.70;1.00
4673;DHT22;61885;53.560;9.940;2022-08-04T10:43:37;31.70;1.00
4673;DHT22;61885;53.560;9.940;2022-08-04T10:46:15;31.80;1.00
4673;DHT22;61885;53.560;9.940;2022-08-04T10:48:50;31.80;1.00
4673;DHT22;61885;53.560;9.940;2022-08-04T10:51:32;31.90;1.00
4673;DHT22;61885;53.560;9.940;2022-08-04T10:54:06;31.90;1.00
4673;DHT22;61885;53.560;9.940;2022-08-04T10:56:39;31.90;1.00
4673;DHT22;61885;53.560;9.940;2022-08-04T10:59:12;32.00;1.00
4673;DHT22;61885;53.560;9.940;2022-08-04T11:01:48;32.00;1.00
4673;DHT22;61885;53.560;9.940;2022-08-04T11:04:24;32.10;1.00
4673;DHT22;61885;53.560;9.940;2022-08-04T11:06:54;32.20;1.00
4673;DHT22;61885;53.560;9.940;2022-08-04T11:09:23;32.30;1.00
4673;DHT22;61885;53.560;9.940;2022-08-04T11:11:54;32.40;1.00
4673;DHT22;61885;53.560;9.940;2022-08-04T11:14:28;32.40;1.00
4673;DHT22;61885;53.560;9.940;2022-08-04T11:17:05;32.50;1.00
4673;DHT22;61885;53.560;9.940;2022-08-04T11:19:38;32.60;1.00
4673;DHT22;61885;53.560;9.940;2022-08-04T11:22:17;32.70;1.00
4673;DHT22;61885;53.560;9.940;2022-08-04T11:24:54;32.80;1.00
4673;DHT22;61885;53.560;9.940;2022-08-04T11:27:29;32.90;1.00
4673;DHT22;61885;53.560;9.940;2022-08-04T11:30:04;32.90;1.00
4673;DHT22;61885;53.560;9.940;2022-08-04T11:32:41;33.20;1.00
4673;DHT22;61885;53.560;9.940;2022-08-04T11:35:15;33.40;1.00
4673;DHT22;61885;53.560;9.940;2022-08-04T11:37:49;33.40;1.00
4673;DHT22;61885;53.560;9.940;2022-08-04T11:40:31;33.40;1.00
4673;DHT22;61885;53.560;9.940;2022-08-04T11:43:08;33.60;1.00
4673;DHT22;61885;53.560;9.940;2022-08-04T11:45:41;33.60;1.00
4673;DHT22;61885;53.560;9.940;2022-08-04T11:48:18;33.80;1.00
4673;DHT22;61885;53.560;9.940;2022-08-04T11:50:51;33.80;1.00
4673;DHT22;61885;53.560;9.940;2022-08-04T11:53:23;33.90;1.00
4673;DHT22;61885;53.560;9.940;2022-08-04T11:55:58;34.10;1.00
4673;DHT22;61885;53.560;9.940;2022-08-04T11:58:28;33.90;1.00
4673;DHT22;61885;53.560;9.940;2022-08-04T12:01:02;33.80;1.00
4673;DHT22;61885;53.560;9.940;2022-08-04T12:03:43;33.60;1.00
4673;DHT22;61885;53.560;9.940;2022-08-04T12:06:19;33.50;1.00
4673;DHT22;61885;53.560;9.940;2022-08-04T12:08:59;33.80;1.00
4673;DHT22;61885;53.560;9.940;2022-08-04T12:11:59;34.30;1.00
4673;DHT22;61885;53.560;9.940;2022-08-04T12:14:50;34.60;1.00
4673;DHT22;61885;53.560;9.940;2022-08-04T12:17:24;34.70;1.00
4673;DHT22;61885;53.560;9.940;2022-08-04T12:20:02;34.60;1.00
4673;DHT22;61885;53.560;9.940;2022-08-04T12:22:36;34.60;1.00
4673;DHT22;61885;53.560;9.940;2022-08-04T12:25:07;34.50;1.00
4673;DHT22;61885;53.560;9.940;2022-08-04T12:27:43;34.50;1.00
4673;DHT22;61885;53.560;9.940;2022-08-04T12:30:15;38.30;1.00
4673;DHT22;61885;53.560;9.940;2022-08-04T12:32:50;34.70;1.00
4673;DHT22;61885;53.560;9.940;2022-08-04T12:35:28;34.90;1.00
4673;DHT22;61885;53.560;9.940;2022-08-04T12:38:02;35.10;1.00
4673;DHT22;61885;53.560;9.940;2022-08-04T12:40:38;34.70;1.00
4673;DHT22;61885;53.560;9.940;2022-08-04T12:43:10;34.70;1.00
4673;DHT22;61885;53.560;9.940;2022-08-04T12:45:45;34.90;1.00
4673;DHT22;61885;53.560;9.940;2022-08-04T12:48:15;35.00;1.00
4673;DHT22;61885;53.560;9.940;2022-08-04T12:50:50;35.10;1.00
4673;DHT22;61885;53.560;9.940;2022-08-04T12:53:21;35.20;1.00
4673;DHT22;61885;53.560;9.940;2022-08-04T12:55:51;35.30;1.00
4673;DHT22;61885;53.560;9.940;2022-08-04T12:58:23;35.50;1.00
4673;DHT22;61885;53.560;9.940;2022-08-04T13:00:54;35.60;1.00
4673;DHT22;61885;53.560;9.940;2022-08-04T13:03:28;35.30;1.00
4673;DHT22;61885;53.560;9.940;2022-08-04T13:06:00;35.30;1.00
4673;DHT22;61885;53.560;9.940;2022-08-04T13:08:35;35.50;1.00
4673;DHT22;61885;53.560;9.940;2022-08-04T13:11:05;35.20;1.00
4673;DHT22;61885;53.560;9.940;2022-08-04T13:13:37;34.90;1.00
4673;DHT22;61885;53.560;9.940;2022-08-04T13:16:08;34.70;1.00
4673;DHT22;61885;53.560;9.940;2022-08-04T13:18:38;34.70;1.00
4673;DHT22;61885;53.560;9.940;2022-08-04T13:21:15;34.70;1.00
4673;DHT22;61885;53.560;9.940;2022-08-04T13:23:45;34.90;1.00
4673;DHT22;61885;53.560;9.940;2022-08-04T13:26:15;35.20;1.00
4673;DHT22;61885;53.560;9.940;2022-08-04T13:28:47;35.40;1.00
4673;DHT22;61885;53.560;9.940;2022-08-04T13:31:18;35.20;1.00
4673;DHT22;61885;53.560;9.940;2022-08-04T13:33:52;35.10;1.00
4673;DHT22;61885;53.560;9.940;2022-08-04T13:36:25;35.00;1.00
4673;DHT22;61885;53.560;9.940;2022-08-04T13:38:59;35.00;1.00
4673;DHT22;61885;53.560;9.940;2022-08-04T13:41:30;35.20;1.00
4673;DHT22;61885;53.560;9.940;2022-08-04T13:44:02;35.30;1.00
4673;DHT22;61885;53.560;9.940;2022-08-04T13:46:38;35.40;1.00
4673;DHT22;61885;53.560;9.940;2022-08-04T13:49:09;35.40;1.00
4673;DHT22;61885;53.560;9.940;2022-08-04T13:51:46;35.20;1.00
4673;DHT22;61885;53.560;9.940;2022-08-04T13:54:17;35.00;1.00
4673;DHT22;61885;53.560;9.940;2022-08-04T13:56:54;34.70;1.00
4673;DHT22;61885;53.560;9.940;2022-08-04T13:59:27;34.60;1.00
4673;DHT22;61885;53.560;9.940;2022-08-04T14:02:03;34.90;1.00
4673;DHT22;61885;53.560;9.940;2022-08-04T14:04:36;35.20;1.00
4673;DHT22;61885;53.560;9.940;2022-08-04T14:07:12;35.60;1.00
4673;DHT22;61885;53.560;9.940;2022-08-04T14:09:42;35.70;1.00
4673;DHT22;61885;53.560;9.940;2022-08-04T14:12:13;35.60;1.00
4673;DHT22;61885;53.560;9.940;2022-08-04T14:14:45;35.60;1.00
4673;DHT22;61885;53.560;9.940;2022-08-04T14:17:15;35.70;1.00
4673;DHT22;61885;53.560;9.940;2022-08-04T14:19:51;35.90;1.00
4673;DHT22;61885;53.560;9.940;2022-08-04T14:22:36;32.80;1.00
4673;DHT22;61885;53.560;9.940;2022-08-04T14:25:07;36.40;1.00
4673;DHT22;61885;53.560;9.940;2022-08-04T14:27:42;36.30;1.00
4673;DHT22;61885;53.560;9.940;2022-08-04T14:30:26;36.70;1.00
4673;DHT22;61885;53.560;9.940;2022-08-04T14:33:01;36.80;1.00
4673;DHT22;61885;53.560;9.940;2022-08-04T14:35:30;36.60;1.00
4673;DHT22;61885;53.560;9.940;2022-08-04T14:38:04;36.90;1.00
4673;DHT22;61885;53.560;9.940;2022-08-04T14:40:35;36.50;1.00
4673;DHT22;61885;53.560;9.940;2022-08-04T14:43:06;35.80;1.00
4673;DHT22;61885;53.560;9.940;2022-08-04T14:45:37;34.90;1.00
4673;DHT22;61885;53.560;9.940;2022-08-04T14:48:08;33.60;1.00
4673;DHT22;61885;53.560;9.940;2022-08-04T14:50:38;32.70;1.00
4673;DHT22;61885;53.560;9.940;2022-08-04T14:53:11;32.30;1.00
4673;DHT22;61885;53.560;9.940;2022-08-04T14:55:45;31.70;1.00
4673;DHT22;61885;53.560;9.940;2022-08-04T14:58:17;31.00;1.00
4673;DHT22;61885;53.560;9.940;2022-08-04T15:00:47;30.50;1.00
4673;DHT22;61885;53.560;9.940;2022-08-04T15:03:17;30.10;1.00
4673;DHT22;61885;53.560;9.940;2022-08-04T15:05:47;29.90;1.00
4673;DHT22;61885;53.560;9.940;2022-08-04T15:08:18;29.70;1.00
4673;DHT22;61885;53.560;9.940;2022-08-04T15:10:47;29.50;1.00
4673;DHT22;61885;53.560;9.940;2022-08-04T15:13:15;29.40;1.00
4673;DHT22;61885;53.560;9.940;2022-08-04T15:15:44;29.30;1.00
4673;DHT22;61885;53.560;9.940;2022-08-04T15:18:13;29.10;1.00
4673;DHT22;61885;53.560;9.940;2022-08-04T15:20:42;28.80;1.00
4673;DHT22;61885;53.560;9.940;2022-08-04T15:23:10;28.60;1.00
4673;DHT22;61885;53.560;9.940;2022-08-04T15:25:46;28.40;1.00
4673;DHT22;61885;53.560;9.940;2022-08-04T15:28:17;28.30;1.00
4673;DHT22;61885;53.560;9.940;2022-08-04T15:30:48;28.10;1.00
4673;DHT22;61885;53.560;9.940;2022-08-04T15:33:18;27.90;1.00
4673;DHT22;61885;53.560;9.940;2022-08-04T15:35:49;27.50;7.80
4673;DHT22;61885;53.560;9.940;2022-08-04T15:38:31;27.00;12.00
4673;DHT22;61885;53.560;9.940;2022-08-04T15:41:13;26.90;10.80
4673;DHT22;61885;53.560;9.940;2022-08-04T15:43:53;26.60;9.50
4673;DHT22;61885;53.560;9.940;2022-08-04T15:49:35;26.30;8.70
4673;DHT22;61885;53.560;9.940;2022-08-04T15:52:07;26.10;11.30
4673;DHT22;61885;53.560;9.940;2022-08-04T15:54:36;25.60;53.70
4673;DHT22;61885;53.560;9.940;2022-08-04T15:57:08;24.50;99.40
4673;DHT22;61885;53.560;9.940;2022-08-04T15:59:58;23.80;91.50
4673;DHT22;61885;53.560;9.940;2022-08-04T16:02:48;23.30;99.90
4673;DHT22;61885;53.560;9.940;2022-08-04T16:05:32;22.90;99.90
4673;DHT22;61885;53.560;9.940;2022-08-04T16:08:16;22.40;99.90
4673;DHT22;61885;53.560;9.940;2022-08-04T16:10:47;22.00;99.90
4673;DHT22;61885;53.560;9.940;2022-08-04T16:13:20;21.80;99.90
4673;DHT22;61885;53.560;9.940;2022-08-04T16:15:51;21.80;99.90
4673;DHT22;61885;53.560;9.940;2022-08-04T16:18:38;21.70;99.90
4673;DHT22;61885;53.560;9.940;2022-08-04T16:21:20;21.80;99.90
4673;DHT22;61885;53.560;9.940;2022-08-04T16:24:07;22.00;99.90
4673;DHT22;61885;53.560;9.940;2022-08-04T16:26:44;22.00;99.90
4673;DHT22;61885;53.560;9.940;2022-08-04T16:29:34;21.90;99.90
4673;DHT22;61885;53.560;9.940;2022-08-04T16:32:18;21.90;99.90
4673;DHT22;61885;53.560;9.940;2022-08-04T16:34:51;22.10;99.90
4673;DHT22;61885;53.560;9.940;2022-08-04T16:37:22;22.10;99.90
4673;DHT22;61885;53.560;9.940;2022-08-04T16:40:24;22.10;99.90
4673;DHT22;61885;53.560;9.940;2022-08-04T16:42:57;22.20;99.90
4673;DHT22;61885;53.560;9.940;2022-08-04T16:45:42;22.30;99.90
4673;DHT22;61885;53.560;9.940;2022-08-04T16:48:11;22.30;99.90
4673;DHT22;61885;53.560;9.940;2022-08-04T16:50:51;22.30;99.90
4673;DHT22;61885;53.560;9.940;2022-08-04T16:53:21;22.20;99.90
4673;DHT22;61885;53.560;9.940;2022-08-04T16:55:52;22.20;99.90
4673;DHT22;61885;53.560;9.940;2022-08-04T16:58:28;22.20;99.90
4673;DHT22;61885;53.560;9.940;2022-08-04T17:01:06;22.20;99.90
4673;DHT22;61885;53.560;9.940;2022-08-04T17:03:36;22.30;99.90
4673;DHT22;61885;53.560;9.940;2022-08-04T17:06:07;22.70;99.90
4673;DHT22;61885;53.560;9.940;2022-08-04T17:08:37;22.70;99.90
4673;DHT22;61885;53.560;9.940;2022-08-04T17:11:06;23.10;99.90
4673;DHT22;61885;53.560;9.940;2022-08-04T17:13:38;23.70;99.90
4673;DHT22;61885;53.560;9.940;2022-08-04T17:16:11;24.40;99.90
4673;DHT22;61885;53.560;9.940;2022-08-04T17:18:44;25.00;91.30
4673;DHT22;61885;53.560;9.940;2022-08-04T17:21:16;25.40;72.80
4673;DHT22;61885;53.560;9.940;2022-08-04T17:23:47;25.60;65.50